createdAt,value
2023-02-09T00:01:27.516Z,-5.95
2023-02-09T00:03:54.656Z,-6.00
2023-02-09T00:06:23.733Z,-6.43
2023-02-09T00:08:51.220Z,-6.06
2023-02-09T00:11:43.896Z,-6.04
2023-02-09T00:14:12.058Z,-6.11
2023-02-09T00:16:39.951Z,-5.96
2023-02-09T00:19:07.208Z,-6.03
2023-02-09T00:21:34.201Z,-6.06
2023-02-09T00:24:01.289Z,-6.10
2023-02-09T00:26:28.258Z,-6.05
2023-02-09T00:28:55.366Z,-6.14
2023-02-09T00:31:22.546Z,-6.07
2023-02-09T00:33:49.621Z,-6.23
2023-02-09T00:36:17.697Z,-6.13
2023-02-09T00:38:44.895Z,-6.17
2023-02-09T00:41:13.529Z,-6.18
2023-02-09T00:43:40.980Z,-6.14
2023-02-09T00:46:08.375Z,-6.13
2023-02-09T00:48:36.685Z,-6.26
2023-02-09T00:51:03.701Z,-6.59
2023-02-09T00:53:30.790Z,-6.24
2023-02-09T00:56:01.016Z,-6.37
2023-02-09T00:58:28.218Z,-6.28
2023-02-09T01:00:55.154Z,-6.24
2023-02-09T01:03:24.825Z,-6.32
2023-02-09T01:05:53.419Z,-6.36
2023-02-09T01:08:20.339Z,-6.27
2023-02-09T01:10:47.612Z,-6.46
2023-02-09T01:13:15.511Z,-6.49
2023-02-09T01:15:42.538Z,-6.41
2023-02-09T01:18:09.379Z,-6.23
2023-02-09T01:20:36.474Z,-6.21
2023-02-09T01:23:03.485Z,-6.06
2023-02-09T01:25:30.822Z,-5.90
2023-02-09T01:27:58.100Z,-6.10
2023-02-09T01:30:25.222Z,-6.01
2023-02-09T01:32:52.421Z,-6.01
2023-02-09T01:35:20.038Z,-6.10
2023-02-09T01:37:47.295Z,-5.97
2023-02-09T01:40:15.131Z,-6.04
2023-02-09T01:42:42.073Z,-6.08
2023-02-09T01:45:21.318Z,-6.07
2023-02-09T01:48:00.442Z,-6.16
2023-02-09T01:50:30.909Z,-6.18
2023-02-09T01:52:58.093Z,-6.01
2023-02-09T01:55:29.901Z,-6.11
2023-02-09T01:58:05.827Z,-6.16
2023-02-09T02:00:33.084Z,-6.70
2023-02-09T02:03:04.450Z,-6.26
2023-02-09T02:05:37.415Z,-6.28
2023-02-09T02:08:26.908Z,-6.28
2023-02-09T02:10:54.502Z,-6.31
2023-02-09T02:13:22.223Z,-6.58
2023-02-09T02:15:56.346Z,-6.43
2023-02-09T02:18:57.186Z,-6.33
2023-02-09T02:21:42.337Z,-6.33
2023-02-09T02:24:28.505Z,-6.29
2023-02-09T02:26:58.147Z,-6.31
2023-02-09T02:29:52.859Z,-6.81
2023-02-09T02:32:32.961Z,-6.35
2023-02-09T02:35:28.017Z,-6.36
2023-02-09T02:38:04.144Z,-6.56
2023-02-09T02:40:31.172Z,-6.66
2023-02-09T02:43:09.241Z,-6.62
2023-02-09T02:45:56.450Z,-6.55
2023-02-09T02:48:47.042Z,-6.60
2023-02-09T02:51:38.293Z,-6.59
2023-02-09T02:54:17.962Z,-6.63
2023-02-09T02:56:51.368Z,-6.73
2023-02-09T02:59:23.957Z,-6.95
2023-02-09T03:02:00.135Z,-7.05
2023-02-09T03:04:29.180Z,-6.88
2023-02-09T03:06:56.102Z,-6.88
2023-02-09T03:09:23.559Z,-6.78
2023-02-09T03:11:56.188Z,-6.77
2023-02-09T03:14:48.071Z,-6.92
2023-02-09T03:17:33.674Z,-6.99
2023-02-09T03:20:26.823Z,-7.07
2023-02-09T03:23:02.445Z,-6.81
2023-02-09T03:25:37.727Z,-6.84
2023-02-09T03:28:07.387Z,-6.99
2023-02-09T03:30:35.690Z,-6.87
2023-02-09T03:33:05.152Z,-7.06
2023-02-09T03:35:38.793Z,-7.25
2023-02-09T03:38:08.530Z,-7.22
2023-02-09T03:40:35.576Z,-7.35
2023-02-09T03:43:02.559Z,-7.28
2023-02-09T03:45:29.483Z,-7.32
2023-02-09T03:47:56.569Z,-7.48
2023-02-09T03:50:23.716Z,-7.58
2023-02-09T03:52:50.991Z,-7.38
2023-02-09T03:55:18.167Z,-7.59
2023-02-09T03:57:45.469Z,-7.41
2023-02-09T04:00:13.148Z,-7.47
2023-02-09T04:02:42.768Z,-7.36
2023-02-09T04:05:10.294Z,-7.39
2023-02-09T04:07:40.044Z,-7.46
2023-02-09T04:10:07.404Z,-7.28
2023-02-09T04:12:34.336Z,-7.39
2023-02-09T04:15:01.889Z,-7.50
2023-02-09T04:17:31.645Z,-7.45
2023-02-09T04:19:59.203Z,-7.68
2023-02-09T04:22:26.176Z,-7.38
2023-02-09T04:25:11.890Z,-7.81
2023-02-09T04:27:39.720Z,-7.45
2023-02-09T04:30:07.152Z,-7.45
2023-02-09T04:32:34.169Z,-7.33
2023-02-09T04:35:01.034Z,-7.39
2023-02-09T04:37:30.006Z,-7.44
2023-02-09T04:39:56.921Z,-7.65
2023-02-09T04:42:24.853Z,-7.34
2023-02-09T04:44:51.829Z,-7.40
2023-02-09T04:47:37.225Z,-7.52
2023-02-09T04:50:04.448Z,-7.38
2023-02-09T04:52:31.424Z,-7.40
2023-02-09T04:54:58.301Z,-7.71
2023-02-09T04:57:43.761Z,-7.53
2023-02-09T05:00:11.544Z,-7.39
2023-02-09T05:02:38.477Z,-7.19
2023-02-09T05:05:05.708Z,-7.67
2023-02-09T05:07:32.609Z,-7.39
2023-02-09T05:09:59.458Z,-7.73
2023-02-09T05:12:26.618Z,-7.57
2023-02-09T05:14:53.578Z,-7.59
2023-02-09T05:17:21.292Z,-7.78
2023-02-09T05:19:48.859Z,-7.55
2023-02-09T05:22:16.101Z,-7.64
2023-02-09T05:24:43.025Z,-7.56
2023-02-09T05:27:10.143Z,-7.54
2023-02-09T05:29:37.122Z,-7.46
2023-02-09T05:32:04.413Z,-7.40
2023-02-09T05:34:31.356Z,-7.60
2023-02-09T05:36:58.579Z,-7.54
2023-02-09T05:39:25.481Z,-7.69
2023-02-09T05:42:11.269Z,-7.72
2023-02-09T05:44:38.402Z,-7.66
2023-02-09T05:47:05.361Z,-7.65
2023-02-09T05:49:32.331Z,-7.65
2023-02-09T05:51:59.258Z,-7.60
2023-02-09T05:54:26.524Z,-7.53
2023-02-09T05:56:53.432Z,-7.55
2023-02-09T05:59:20.647Z,-7.53
2023-02-09T06:01:47.613Z,-7.75
2023-02-09T06:04:14.533Z,-7.55
2023-02-09T06:06:41.565Z,-7.50
2023-02-09T06:09:08.604Z,-7.62
2023-02-09T06:11:35.793Z,-7.48
2023-02-09T06:14:02.741Z,-7.48
2023-02-09T06:16:30.060Z,-7.46
2023-02-09T06:18:56.912Z,-7.42
2023-02-09T06:21:23.759Z,-7.33
2023-02-09T06:23:50.691Z,-7.23
2023-02-09T06:26:18.351Z,-7.06
2023-02-09T06:28:46.223Z,-7.01
2023-02-09T06:31:13.678Z,-7.08
2023-02-09T06:33:40.702Z,-7.01
2023-02-09T06:36:08.783Z,-6.86
2023-02-09T06:38:37.666Z,-6.72
2023-02-09T06:41:05.660Z,-6.75
2023-02-09T06:43:32.643Z,-7.18
2023-02-09T06:46:08.554Z,-6.77
2023-02-09T06:48:36.590Z,-7.21
2023-02-09T06:51:11.336Z,-7.05
2023-02-09T06:53:39.853Z,-6.82
2023-02-09T06:56:07.319Z,-6.67
2023-02-09T06:58:35.033Z,-6.63
2023-02-09T07:01:07.198Z,-6.90
2023-02-09T07:03:34.463Z,-6.57
2023-02-09T07:06:09.256Z,-6.60
2023-02-09T07:08:36.996Z,-6.38
2023-02-09T07:11:06.320Z,-6.43
2023-02-09T07:13:33.587Z,-6.19
2023-02-09T07:16:02.360Z,-6.05
2023-02-09T07:18:29.673Z,-6.12
2023-02-09T07:20:59.124Z,-6.57
2023-02-09T07:23:26.272Z,-5.95
2023-02-09T07:25:53.727Z,-5.99
2023-02-09T07:28:21.138Z,-5.80
2023-02-09T07:30:52.602Z,-5.65
2023-02-09T07:33:21.013Z,-5.68
2023-02-09T07:35:48.877Z,-5.79
2023-02-09T07:38:16.410Z,-5.51
2023-02-09T07:40:46.782Z,-5.66
2023-02-09T07:43:14.532Z,-5.32
2023-02-09T07:45:42.061Z,-5.46
2023-02-09T07:48:13.510Z,-5.23
2023-02-09T07:50:40.686Z,-5.37
2023-02-09T07:53:07.626Z,-5.11
2023-02-09T07:55:34.813Z,-4.91
2023-02-09T07:58:01.852Z,-4.98
2023-02-09T08:00:29.963Z,-5.10
2023-02-09T08:02:57.196Z,-5.18
2023-02-09T08:05:35.134Z,-5.12
2023-02-09T08:08:02.444Z,-4.81
2023-02-09T08:10:31.341Z,-4.77
2023-02-09T08:13:00.682Z,-4.58
2023-02-09T08:15:49.876Z,-4.36
2023-02-09T08:18:24.312Z,-4.53
2023-02-09T08:20:53.248Z,-4.31
2023-02-09T08:23:32.899Z,-4.41
2023-02-09T08:26:05.923Z,-4.13
2023-02-09T08:28:43.653Z,-4.16
2023-02-09T08:31:16.572Z,-4.07
2023-02-09T08:33:44.955Z,-4.54
2023-02-09T08:36:13.794Z,-4.10
2023-02-09T08:38:40.858Z,-4.04
2023-02-09T08:41:10.785Z,-3.90
2023-02-09T08:43:38.067Z,-4.13
2023-02-09T08:46:11.761Z,-3.87
2023-02-09T08:48:45.461Z,-3.52
2023-02-09T08:51:14.745Z,-3.39
2023-02-09T08:53:43.328Z,-3.37
2023-02-09T08:56:10.592Z,-3.47
2023-02-09T08:58:37.669Z,-3.86
2023-02-09T09:01:05.629Z,-3.62
2023-02-09T09:03:33.369Z,-3.29
2023-02-09T09:06:02.784Z,-3.26
2023-02-09T09:08:32.548Z,-2.95
2023-02-09T09:11:00.473Z,-3.04
2023-02-09T09:13:28.127Z,-2.99
2023-02-09T09:15:55.500Z,-2.91
2023-02-09T09:18:24.414Z,-3.13
2023-02-09T09:20:52.107Z,-2.69
2023-02-09T09:23:21.180Z,-3.02
2023-02-09T09:25:48.652Z,-2.76
2023-02-09T09:28:26.667Z,-2.92
2023-02-09T09:30:54.217Z,-2.65
2023-02-09T09:33:21.880Z,-3.69
2023-02-09T09:35:48.864Z,-2.65
2023-02-09T09:38:16.380Z,-2.34
2023-02-09T09:40:45.413Z,-2.37
2023-02-09T09:43:22.762Z,-2.24
2023-02-09T09:45:50.669Z,-2.59
2023-02-09T09:48:32.289Z,-2.45
2023-02-09T09:51:10.180Z,-2.21
2023-02-09T09:53:38.803Z,-2.29
2023-02-09T09:56:08.960Z,-2.23
2023-02-09T09:58:41.377Z,-1.98
2023-02-09T10:01:16.865Z,-1.92
2023-02-09T10:03:44.683Z,-2.16
2023-02-09T10:06:21.971Z,-2.55
2023-02-09T10:08:52.064Z,-2.01
2023-02-09T10:11:28.751Z,-2.00
2023-02-09T10:13:59.491Z,-1.65
2023-02-09T10:16:34.654Z,-1.73
2023-02-09T10:19:04.483Z,-1.56
2023-02-09T10:21:35.979Z,-1.49
2023-02-09T10:24:11.779Z,-1.37
2023-02-09T10:26:40.617Z,-1.60
2023-02-09T10:29:10.924Z,-1.31
2023-02-09T10:31:50.525Z,-1.29
2023-02-09T10:34:21.423Z,-1.35
2023-02-09T10:37:05.634Z,-1.23
2023-02-09T10:39:35.606Z,-1.11
2023-02-09T10:42:27.608Z,-1.13
2023-02-09T10:44:59.876Z,-1.32
2023-02-09T10:47:30.241Z,-1.08
2023-02-09T10:50:04.752Z,-1.03
2023-02-09T10:52:37.524Z,-0.94
2023-02-09T10:55:16.023Z,-0.91
2023-02-09T10:57:42.965Z,-0.93
2023-02-09T11:00:27.847Z,-0.79
2023-02-09T11:03:03.925Z,-0.70
2023-02-09T11:05:34.021Z,-0.62
2023-02-09T11:08:23.175Z,-0.69
2023-02-09T11:11:02.738Z,-0.58
2023-02-09T11:13:33.331Z,-1.73
2023-02-09T11:16:40.738Z,-0.56
2023-02-09T11:19:27.885Z,-0.55
2023-02-09T11:22:05.703Z,-0.60
2023-02-09T11:25:14.400Z,-0.52
2023-02-09T11:28:03.114Z,-0.45
2023-02-09T11:30:50.739Z,-0.64
2023-02-09T11:33:47.246Z,-0.14
2023-02-09T11:36:33.331Z,-0.25
2023-02-09T11:39:03.216Z,-0.27
2023-02-09T11:41:58.937Z,0.03
2023-02-09T11:44:32.870Z,-0.15
2023-02-09T11:47:05.234Z,-0.02
2023-02-09T11:49:49.496Z,-0.50
2023-02-09T11:52:35.760Z,0.22
2023-02-09T11:55:20.738Z,-0.06
2023-02-09T11:58:06.706Z,0.25
2023-02-09T12:00:56.218Z,0.21
2023-02-09T12:03:24.905Z,0.13
2023-02-09T12:05:52.369Z,0.10
2023-02-09T12:08:38.505Z,0.30
2023-02-09T12:11:45.464Z,0.33
2023-02-09T12:15:00.348Z,0.41
2023-02-09T12:17:43.492Z,0.46
2023-02-09T12:20:40.467Z,0.44
2023-02-09T12:23:23.799Z,0.32
2023-02-09T12:26:12.978Z,0.51
2023-02-09T12:28:43.538Z,0.40
2023-02-09T12:31:26.160Z,0.45
2023-02-09T12:33:59.393Z,0.42
2023-02-09T12:36:32.529Z,0.45
2023-02-09T12:39:05.074Z,0.48
2023-02-09T12:41:35.342Z,0.58
2023-02-09T12:44:25.222Z,0.66
2023-02-09T12:46:55.793Z,0.53
2023-02-09T12:49:29.118Z,0.74
2023-02-09T12:52:02.173Z,0.68
2023-02-09T12:54:38.075Z,0.84
2023-02-09T12:57:17.997Z,0.73
2023-02-09T12:59:51.160Z,0.68
2023-02-09T13:02:33.830Z,0.77
2023-02-09T13:05:08.045Z,0.79
2023-02-09T13:07:58.703Z,0.75
2023-02-09T13:10:41.267Z,0.73
2023-02-09T13:13:11.272Z,0.81
2023-02-09T13:15:50.953Z,0.77
2023-02-09T13:18:55.521Z,0.71
2023-02-09T13:21:31.601Z,0.99
2023-02-09T13:24:13.099Z,0.93
2023-02-09T13:26:53.630Z,0.76
2023-02-09T13:29:26.265Z,0.94
2023-02-09T13:32:10.541Z,1.13
2023-02-09T13:34:56.006Z,1.12
2023-02-09T13:37:45.040Z,1.03
2023-02-09T13:40:25.158Z,0.71
2023-02-09T13:42:57.254Z,0.89
2023-02-09T13:45:27.095Z,1.15
2023-02-09T13:47:56.195Z,1.15
2023-02-09T13:50:26.130Z,1.15
2023-02-09T13:52:53.256Z,1.09
2023-02-09T13:55:21.336Z,1.23
2023-02-09T13:58:18.040Z,0.99
2023-02-09T14:00:52.439Z,0.01
2023-02-09T14:03:58.935Z,1.12
2023-02-09T14:06:28.778Z,0.96
2023-02-09T14:09:00.043Z,0.92
2023-02-09T14:11:43.137Z,1.08
2023-02-09T14:14:18.037Z,1.01
2023-02-09T14:16:53.407Z,0.95
2023-02-09T14:19:33.431Z,1.00
2023-02-09T14:22:00.250Z,1.09
2023-02-09T14:24:28.975Z,1.09
2023-02-09T14:27:16.722Z,1.06
2023-02-09T14:29:47.668Z,1.03
2023-02-09T14:32:32.991Z,1.13
2023-02-09T14:35:20.503Z,1.16
2023-02-09T14:37:50.127Z,1.10
2023-02-09T14:40:31.726Z,1.10
2023-02-09T14:43:10.778Z,1.05
2023-02-09T14:45:40.931Z,0.89
2023-02-09T14:48:17.939Z,0.88
2023-02-09T14:50:45.176Z,0.86
2023-02-09T14:53:14.462Z,0.77
2023-02-09T14:55:41.728Z,0.49
2023-02-09T14:58:12.761Z,0.31
2023-02-09T15:00:39.701Z,0.29
2023-02-09T15:03:06.800Z,0.28
2023-02-09T15:05:33.780Z,0.20
2023-02-09T15:08:05.795Z,-0.58
2023-02-09T15:10:36.173Z,0.12
2023-02-09T15:13:04.266Z,0.07
2023-02-09T15:15:33.235Z,0.09
2023-02-09T15:18:00.650Z,0.03
2023-02-09T15:20:29.399Z,-0.19
2023-02-09T15:22:56.357Z,-0.19
2023-02-09T15:25:25.349Z,-0.22
2023-02-09T15:27:56.767Z,-0.21
2023-02-09T15:30:31.778Z,-0.21
2023-02-09T15:32:59.440Z,-0.40
2023-02-09T15:35:27.518Z,-0.47
2023-02-09T15:37:59.714Z,-0.66
2023-02-09T15:40:50.021Z,-0.67
2023-02-09T15:43:39.283Z,-0.80
2023-02-09T15:46:26.575Z,-0.76
2023-02-09T15:48:53.543Z,-0.69
2023-02-09T15:51:22.125Z,-0.71
2023-02-09T15:53:49.335Z,-0.92
2023-02-09T15:56:16.433Z,-1.25
2023-02-09T15:58:45.372Z,-0.93
2023-02-09T16:01:14.910Z,-1.01
2023-02-09T16:03:42.664Z,-1.11
2023-02-09T16:06:21.665Z,-1.05
2023-02-09T16:08:49.857Z,-1.18
2023-02-09T16:11:17.634Z,-1.22
2023-02-09T16:13:44.560Z,-1.23
2023-02-09T16:16:17.252Z,-1.62
2023-02-09T16:18:45.966Z,-1.39
2023-02-09T16:21:26.737Z,-1.33
2023-02-09T16:23:58.149Z,-1.39
2023-02-09T16:26:27.364Z,-1.52
2023-02-09T16:28:55.120Z,-1.48
2023-02-09T16:31:23.621Z,-1.59
2023-02-09T16:33:51.457Z,-1.50
2023-02-09T16:36:31.825Z,-1.45
2023-02-09T16:39:01.226Z,-1.55
2023-02-09T16:41:46.864Z,-1.70
2023-02-09T16:44:26.373Z,-1.57
2023-02-09T16:46:56.771Z,-1.60
2023-02-09T16:49:43.928Z,-1.71
2023-02-09T16:52:20.865Z,-1.76
2023-02-09T16:54:51.782Z,-1.52
2023-02-09T16:57:21.195Z,-2.34
2023-02-09T16:59:48.077Z,-1.64
2023-02-09T17:02:36.938Z,-1.56
2023-02-09T17:05:25.730Z,-1.60
2023-02-09T17:08:01.989Z,-1.72
2023-02-09T17:10:32.406Z,-1.70
2023-02-09T17:13:04.866Z,-1.67
2023-02-09T17:15:39.325Z,-1.75
2023-02-09T17:18:09.697Z,-1.71
2023-02-09T17:20:42.067Z,-2.01
2023-02-09T17:23:22.938Z,-1.98
2023-02-09T17:26:01.005Z,-2.19
2023-02-09T17:28:31.326Z,-2.09
2023-02-09T17:31:04.678Z,-2.18
2023-02-09T17:33:34.323Z,-2.05
2023-02-09T17:38:49.739Z,-1.96
2023-02-09T17:41:33.760Z,-2.10
2023-02-09T17:44:24.309Z,-1.94
2023-02-09T17:46:59.099Z,-2.02
2023-02-09T17:49:26.187Z,-1.99
2023-02-09T17:51:55.935Z,-1.99
2023-02-09T17:54:23.670Z,-2.06
2023-02-09T17:56:50.798Z,-1.81
2023-02-09T17:59:20.356Z,-1.97
2023-02-09T18:01:51.222Z,-2.12
2023-02-09T18:04:22.726Z,-2.16
2023-02-09T18:06:49.956Z,-1.96
2023-02-09T18:09:17.036Z,-2.96
2023-02-09T18:11:54.341Z,-1.88
2023-02-09T18:14:23.109Z,-1.96
2023-02-09T18:16:50.994Z,-2.15
2023-02-09T18:19:18.353Z,-2.23
2023-02-09T18:22:03.209Z,-2.05
2023-02-09T18:24:35.236Z,-2.12
2023-02-09T18:27:03.385Z,-2.07
2023-02-09T18:29:30.767Z,-2.18
2023-02-09T18:32:01.046Z,-2.26
2023-02-09T18:34:30.996Z,-2.18
2023-02-09T18:36:58.293Z,-2.63
2023-02-09T18:39:25.457Z,-2.25
2023-02-09T18:41:55.121Z,-2.20
2023-02-09T18:44:29.004Z,-2.67
2023-02-09T18:46:57.828Z,-2.62
2023-02-09T18:49:26.056Z,-2.36
2023-02-09T18:51:53.336Z,-2.35
2023-02-09T18:54:20.330Z,-2.41
2023-02-09T18:56:47.665Z,-2.45
2023-02-09T18:59:14.707Z,-2.38
2023-02-09T19:01:42.069Z,-2.43
2023-02-09T19:04:11.156Z,-2.74
2023-02-09T19:06:38.993Z,-2.45
2023-02-09T19:09:05.926Z,-2.55
2023-02-09T19:11:32.987Z,-2.40
2023-02-09T19:14:18.875Z,-2.47
2023-02-09T19:16:48.936Z,-2.54
2023-02-09T19:19:16.448Z,-2.46
2023-02-09T19:21:43.554Z,-2.64
2023-02-09T19:24:10.508Z,-2.58
2023-02-09T19:26:37.508Z,-2.57
2023-02-09T19:29:05.004Z,-2.88
2023-02-09T19:31:32.027Z,-2.73
2023-02-09T19:33:59.128Z,-2.64
2023-02-09T19:36:27.957Z,-2.78
2023-02-09T19:38:56.234Z,-2.57
2023-02-09T19:41:25.643Z,-2.68
2023-02-09T19:43:57.438Z,-3.49
2023-02-09T19:46:25.574Z,-2.81
2023-02-09T19:48:53.915Z,-2.63
2023-02-09T19:51:21.910Z,-2.82
2023-02-09T19:53:49.679Z,-2.82
2023-02-09T19:56:19.510Z,-2.98
2023-02-09T19:58:47.004Z,-2.91
2023-02-09T20:01:13.916Z,-2.88
2023-02-09T20:03:41.474Z,-2.93
2023-02-09T20:06:11.867Z,-2.83
2023-02-09T20:08:39.850Z,-3.35
2023-02-09T20:11:08.371Z,-2.96
2023-02-09T20:13:35.970Z,-3.06
2023-02-09T20:16:11.172Z,-3.03
2023-02-09T20:18:38.148Z,-3.24
2023-02-09T20:21:09.632Z,-3.68
2023-02-09T20:23:37.730Z,-3.30
2023-02-09T20:26:17.126Z,-3.39
2023-02-09T20:28:44.622Z,-3.26
2023-02-09T20:31:12.618Z,-3.61
2023-02-09T20:33:40.262Z,-3.45
2023-02-09T20:36:08.996Z,-3.62
2023-02-09T20:38:37.478Z,-3.36
2023-02-09T20:41:13.774Z,-3.33
2023-02-09T20:43:59.841Z,-3.27
2023-02-09T20:46:44.082Z,-3.32
2023-02-09T20:49:14.547Z,-3.50
2023-02-09T20:51:41.471Z,-3.51
2023-02-09T20:54:08.742Z,-3.69
2023-02-09T20:56:36.394Z,-3.46
2023-02-09T20:59:08.442Z,-3.68
2023-02-09T21:01:42.441Z,-3.62
2023-02-09T21:04:09.714Z,-4.02
2023-02-09T21:06:39.197Z,-4.31
2023-02-09T21:09:08.217Z,-3.71
2023-02-09T21:11:35.296Z,-3.66
2023-02-09T21:14:02.440Z,-3.67
2023-02-09T21:16:30.951Z,-3.93
2023-02-09T21:18:58.670Z,-3.68
2023-02-09T21:21:27.120Z,-3.80
2023-02-09T21:23:54.529Z,-3.90
2023-02-09T21:26:24.901Z,-3.71
2023-02-09T21:28:57.209Z,-3.74
2023-02-09T21:31:27.141Z,-3.79
2023-02-09T21:33:54.392Z,-4.07
2023-02-09T21:36:21.410Z,-3.91
2023-02-09T21:38:48.367Z,-3.92
2023-02-09T21:41:40.500Z,-3.68
2023-02-09T21:44:10.038Z,-3.77
2023-02-09T21:46:37.195Z,-3.76
2023-02-09T21:49:05.537Z,-4.01
2023-02-09T21:51:32.456Z,-3.98
2023-02-09T21:53:59.511Z,-3.94
2023-02-09T21:56:26.498Z,-3.99
2023-02-09T21:58:53.512Z,-3.99
2023-02-09T22:01:22.888Z,-4.04
2023-02-09T22:03:52.702Z,-4.06
2023-02-09T22:06:38.180Z,-3.97
2023-02-09T22:09:06.423Z,-3.95
2023-02-09T22:11:33.754Z,-3.97
2023-02-09T22:14:00.829Z,-3.94
2023-02-09T22:16:29.570Z,-3.95
2023-02-09T22:18:59.812Z,-3.90
2023-02-09T22:21:31.320Z,-3.90
2023-02-09T22:24:00.332Z,-3.86
2023-02-09T22:26:27.252Z,-4.03
2023-02-09T22:28:54.249Z,-4.00
2023-02-09T22:31:21.868Z,-4.05
2023-02-09T22:33:54.352Z,-4.04
2023-02-09T22:36:23.456Z,-4.51
2023-02-09T22:38:50.923Z,-4.04
2023-02-09T22:41:23.963Z,-4.17
2023-02-09T22:44:00.476Z,-4.69
2023-02-09T22:46:31.181Z,-4.15
2023-02-09T22:49:01.206Z,-4.44
2023-02-09T22:51:30.191Z,-4.22
2023-02-09T22:53:59.168Z,-4.18
2023-02-09T22:56:29.023Z,-4.20
2023-02-09T22:58:57.709Z,-4.32
2023-02-09T23:01:24.761Z,-4.25
2023-02-09T23:03:52.886Z,-4.26
2023-02-09T23:06:23.507Z,-4.25
2023-02-09T23:08:55.221Z,-4.32
2023-02-09T23:11:22.609Z,-4.35
2023-02-09T23:13:55.062Z,-4.40
2023-02-09T23:16:34.516Z,-4.41
2023-02-09T23:19:03.996Z,-4.51
2023-02-09T23:21:35.256Z,-4.46
2023-02-09T23:24:03.875Z,-4.45
2023-02-09T23:26:31.138Z,-4.41
2023-02-09T23:29:02.550Z,-4.51
2023-02-09T23:31:30.141Z,-4.82
2023-02-09T23:33:57.724Z,-4.60
2023-02-09T23:36:27.971Z,-5.05
2023-02-09T23:38:57.879Z,-4.51
2023-02-09T23:41:25.800Z,-4.61
2023-02-09T23:43:53.963Z,-4.74
2023-02-09T23:46:24.188Z,-4.63
2023-02-09T23:48:55.134Z,-4.69
2023-02-09T23:51:28.677Z,-4.75
2023-02-09T23:53:57.721Z,-4.73
2023-02-09T23:56:25.011Z,-4.83
2023-02-09T23:58:53.483Z,-4.73
